createdAt,value
2022-08-07T00:02:39.803Z,0.90
2022-08-07T00:05:03.966Z,0.80
2022-08-07T00:07:40.228Z,0.60
2022-08-07T00:10:26.944Z,0.70
2022-08-07T00:13:00.295Z,0.95
2022-08-07T00:15:35.981Z,0.75
2022-08-07T00:18:06.953Z,1.20
2022-08-07T00:20:49.245Z,0.63
2022-08-07T00:23:21.164Z,0.95
2022-08-07T00:25:58.922Z,0.67
2022-08-07T00:28:33.582Z,1.20
2022-08-07T00:31:05.702Z,0.63
2022-08-07T00:33:34.771Z,0.70
2022-08-07T00:36:04.884Z,0.57
2022-08-07T00:38:34.134Z,0.80
2022-08-07T00:41:02.292Z,0.65
2022-08-07T00:44:00.253Z,0.68
2022-08-07T00:46:20.164Z,1.02
2022-08-07T00:48:50.235Z,0.90
2022-08-07T00:51:21.357Z,0.45
2022-08-07T00:53:50.721Z,1.10
2022-08-07T00:56:23.296Z,0.95
2022-08-07T00:58:58.575Z,0.80
2022-08-07T01:01:26.696Z,0.80
2022-08-07T01:04:00.013Z,0.75
2022-08-07T01:06:29.780Z,1.00
2022-08-07T01:08:58.618Z,0.98
2022-08-07T01:12:09.585Z,0.98
2022-08-07T01:14:17.366Z,0.60
2022-08-07T01:16:49.124Z,0.83
2022-08-07T01:19:18.768Z,0.82
2022-08-07T01:21:50.327Z,0.70
2022-08-07T01:24:22.326Z,1.10
2022-08-07T01:26:52.116Z,0.75
2022-08-07T01:29:21.980Z,0.88
2022-08-07T01:31:50.349Z,0.80
2022-08-07T01:34:19.115Z,0.70
2022-08-07T01:36:52.677Z,1.15
2022-08-07T01:39:39.666Z,0.63
2022-08-07T01:42:36.960Z,0.95
2022-08-07T01:45:02.432Z,1.08
2022-08-07T01:48:18.978Z,0.60
2022-08-07T01:50:28.533Z,0.68
2022-08-07T01:52:59.104Z,0.70
2022-08-07T01:55:29.488Z,1.23
2022-08-07T01:58:27.188Z,0.77
2022-08-07T02:00:52.311Z,0.80
2022-08-07T02:03:48.603Z,0.88
2022-08-07T02:06:32.162Z,0.57
2022-08-07T02:09:04.322Z,1.00
2022-08-07T02:12:03.055Z,0.70
2022-08-07T02:14:40.961Z,0.93
2022-08-07T02:17:09.156Z,0.68
2022-08-07T02:20:05.063Z,1.00
2022-08-07T02:22:27.035Z,1.00
2022-08-07T02:24:58.313Z,1.00
2022-08-07T02:27:34.109Z,1.27
2022-08-07T02:30:04.044Z,1.05
2022-08-07T02:32:38.713Z,0.95
2022-08-07T02:35:09.206Z,1.10
2022-08-07T02:37:44.007Z,0.85
2022-08-07T02:40:31.061Z,0.70
2022-08-07T02:43:07.667Z,0.90
2022-08-07T02:46:01.649Z,0.88
2022-08-07T02:48:27.358Z,0.77
2022-08-07T02:50:56.393Z,0.82
2022-08-07T02:53:27.327Z,1.10
2022-08-07T02:56:04.416Z,0.90
2022-08-07T02:58:37.272Z,1.10
2022-08-07T03:01:18.842Z,0.95
2022-08-07T03:03:56.409Z,1.17
2022-08-07T03:06:25.550Z,1.00
2022-08-07T03:09:00.094Z,1.27
2022-08-07T03:11:29.375Z,1.20
2022-08-07T03:14:02.092Z,1.50
2022-08-07T03:16:30.526Z,1.10
2022-08-07T03:18:59.893Z,0.95
2022-08-07T03:21:29.082Z,1.30
2022-08-07T03:24:19.966Z,1.65
2022-08-07T03:26:58.636Z,0.95
2022-08-07T03:29:28.598Z,1.20
2022-08-07T03:31:57.569Z,0.90
2022-08-07T03:34:28.299Z,1.33
2022-08-07T03:36:58.139Z,1.52
2022-08-07T03:39:46.007Z,1.23
2022-08-07T03:42:17.346Z,1.42
2022-08-07T03:44:53.070Z,1.15
2022-08-07T03:47:24.421Z,1.40
2022-08-07T03:49:53.628Z,1.25
2022-08-07T03:52:26.421Z,1.05
2022-08-07T03:55:06.061Z,0.80
2022-08-07T03:58:33.840Z,1.65
2022-08-07T04:00:29.332Z,2.28
2022-08-07T04:02:59.140Z,1.00
2022-08-07T04:05:41.056Z,1.70
2022-08-07T04:08:11.191Z,1.40
2022-08-07T04:10:39.964Z,1.25
2022-08-07T04:13:15.215Z,1.25
2022-08-07T04:15:45.610Z,1.15
2022-08-07T04:18:56.633Z,1.15
2022-08-07T04:21:08.012Z,1.23
2022-08-07T04:23:44.004Z,1.35
2022-08-07T04:26:28.774Z,1.60
2022-08-07T04:28:58.568Z,0.93
2022-08-07T04:31:38.933Z,1.42
2022-08-07T04:34:16.852Z,1.10
2022-08-07T04:36:48.695Z,2.20
2022-08-07T04:39:20.019Z,1.40
2022-08-07T04:41:54.060Z,1.38
2022-08-07T04:44:23.396Z,1.50
2022-08-07T04:47:03.860Z,1.63
2022-08-07T04:49:39.917Z,1.20
2022-08-07T04:52:13.859Z,1.02
2022-08-07T04:54:50.697Z,1.45
2022-08-07T04:58:12.789Z,1.13
2022-08-07T05:00:18.914Z,1.73
2022-08-07T05:03:01.761Z,1.25
2022-08-07T05:05:53.889Z,0.98
2022-08-07T05:08:59.243Z,1.25
2022-08-07T05:11:19.341Z,1.45
2022-08-07T05:14:52.768Z,1.52
2022-08-07T05:16:44.060Z,1.00
2022-08-07T05:19:14.301Z,1.10
2022-08-07T05:21:59.055Z,1.52
2022-08-07T05:24:30.589Z,1.13
2022-08-07T05:27:14.554Z,0.95
2022-08-07T05:29:57.475Z,1.05
2022-08-07T05:32:28.419Z,1.10
2022-08-07T05:34:57.014Z,1.10
2022-08-07T05:37:25.700Z,1.40
2022-08-07T05:40:14.320Z,1.38
2022-08-07T05:42:42.181Z,1.52
2022-08-07T05:45:47.104Z,1.15
2022-08-07T05:48:14.335Z,1.67
2022-08-07T05:50:43.055Z,1.90
2022-08-07T05:54:13.954Z,1.50
2022-08-07T05:56:02.295Z,1.40
2022-08-07T05:58:36.283Z,1.35
2022-08-07T06:01:05.982Z,1.83
2022-08-07T06:03:56.715Z,1.70
2022-08-07T06:06:29.323Z,1.30
2022-08-07T06:08:58.184Z,1.48
2022-08-07T06:11:27.072Z,1.17
2022-08-07T06:14:11.568Z,1.55
2022-08-07T06:16:45.244Z,1.20
2022-08-07T06:19:47.904Z,2.35
2022-08-07T06:22:15.070Z,1.52
2022-08-07T06:24:58.064Z,1.47
2022-08-07T06:27:59.647Z,1.88
2022-08-07T06:30:32.161Z,1.40
2022-08-07T06:33:03.611Z,0.90
2022-08-07T06:35:45.326Z,1.85
2022-08-07T06:38:20.693Z,1.08
2022-08-07T06:40:51.278Z,1.30
2022-08-07T06:43:23.447Z,1.00
2022-08-07T06:45:51.713Z,1.38
2022-08-07T06:48:24.712Z,0.80
2022-08-07T06:50:55.377Z,1.65
2022-08-07T06:54:11.630Z,0.95
2022-08-07T06:56:17.547Z,0.80
2022-08-07T07:00:12.601Z,1.17
2022-08-07T07:01:43.784Z,1.00
2022-08-07T07:04:28.528Z,0.98
2022-08-07T07:07:10.827Z,1.20
2022-08-07T07:09:48.070Z,0.77
2022-08-07T07:12:30.799Z,0.60
2022-08-07T07:15:04.431Z,0.73
2022-08-07T07:17:45.408Z,0.80
2022-08-07T07:20:20.039Z,0.60
2022-08-07T07:24:06.176Z,0.90
2022-08-07T07:26:35.471Z,0.95
2022-08-07T07:28:42.496Z,1.17
2022-08-07T07:31:21.532Z,0.70
2022-08-07T07:33:56.839Z,1.10
2022-08-07T07:36:32.193Z,0.90
2022-08-07T07:39:03.486Z,1.02
2022-08-07T07:41:50.772Z,0.75
2022-08-07T07:44:26.022Z,1.02
2022-08-07T07:50:34.581Z,0.90
2022-08-07T07:53:20.132Z,0.70
2022-08-07T07:55:54.958Z,0.50
2022-08-07T07:58:28.482Z,0.52
2022-08-07T08:00:56.900Z,1.30
2022-08-07T08:04:10.990Z,0.80
2022-08-07T08:06:15.214Z,0.68
2022-08-07T08:08:48.179Z,0.80
2022-08-07T08:11:59.655Z,0.52
2022-08-07T08:14:06.182Z,0.73
2022-08-07T08:16:36.321Z,0.75
2022-08-07T08:19:18.081Z,0.45
2022-08-07T08:22:12.523Z,0.68
2022-08-07T08:25:18.163Z,0.55
2022-08-07T08:27:56.276Z,0.60
2022-08-07T08:30:32.066Z,1.00
2022-08-07T08:33:03.025Z,0.60
2022-08-07T08:35:39.406Z,0.70
2022-08-07T08:38:15.941Z,0.43
2022-08-07T08:40:47.427Z,0.65
2022-08-07T08:43:18.938Z,1.00
2022-08-07T08:45:59.049Z,0.68
2022-08-07T08:48:32.598Z,0.55
2022-08-07T08:51:14.737Z,0.50
2022-08-07T08:53:57.913Z,0.40
2022-08-07T08:56:29.805Z,1.10
2022-08-07T08:59:06.345Z,0.60
2022-08-07T09:04:15.781Z,0.60
2022-08-07T09:06:49.007Z,0.40
2022-08-07T09:09:30.296Z,0.50
2022-08-07T09:12:30.148Z,0.52
2022-08-07T09:16:24.885Z,0.50
2022-08-07T09:17:59.516Z,0.80
2022-08-07T09:20:43.728Z,0.70
2022-08-07T09:24:28.373Z,0.82
2022-08-07T09:26:25.520Z,0.32
2022-08-07T09:30:02.337Z,0.95
2022-08-07T09:31:52.371Z,0.30
2022-08-07T09:34:26.314Z,0.30
2022-08-07T09:37:01.056Z,0.50
2022-08-07T09:42:33.273Z,0.50
2022-08-07T09:47:25.073Z,0.75
2022-08-07T09:48:11.867Z,0.35
2022-08-07T09:50:47.364Z,0.40
2022-08-07T09:53:22.482Z,0.50
2022-08-07T09:56:03.467Z,0.50
2022-08-07T09:58:42.622Z,0.47
2022-08-07T10:01:51.081Z,0.60
2022-08-07T10:04:28.128Z,0.60
2022-08-07T10:07:10.767Z,0.80
2022-08-07T10:10:03.814Z,0.65
2022-08-07T10:12:41.883Z,0.40
2022-08-07T10:15:44.017Z,0.30
2022-08-07T10:18:20.727Z,0.50
2022-08-07T10:21:02.684Z,0.40
2022-08-07T10:24:05.193Z,0.50
2022-08-07T10:26:51.802Z,0.50
2022-08-07T10:29:45.608Z,0.50
2022-08-07T10:32:36.479Z,0.70
2022-08-07T10:35:20.498Z,0.40
2022-08-07T10:38:20.992Z,0.30
2022-08-07T10:40:52.994Z,0.60
2022-08-07T10:43:34.099Z,0.30
2022-08-07T10:46:03.020Z,0.47
2022-08-07T10:48:37.389Z,0.40
2022-08-07T10:51:16.385Z,0.30
2022-08-07T10:54:06.707Z,1.05
2022-08-07T10:56:37.773Z,0.40
2022-08-07T10:59:10.973Z,0.95
2022-08-07T11:01:51.490Z,0.30
2022-08-07T11:04:39.099Z,0.20
2022-08-07T11:07:15.082Z,0.50
2022-08-07T11:10:07.358Z,0.63
2022-08-07T11:12:43.243Z,0.40
2022-08-07T11:15:17.310Z,0.40
2022-08-07T11:17:49.684Z,0.50
2022-08-07T11:20:24.383Z,0.40
2022-08-07T11:22:55.302Z,0.50
2022-08-07T11:25:29.348Z,0.45
2022-08-07T11:28:04.122Z,0.30
2022-08-07T11:30:41.583Z,0.40
2022-08-07T11:33:14.273Z,0.40
2022-08-07T11:35:59.864Z,0.30
2022-08-07T11:38:31.439Z,0.40
2022-08-07T11:41:04.930Z,0.28
2022-08-07T11:44:11.062Z,0.35
2022-08-07T11:46:36.605Z,0.50
2022-08-07T11:49:50.217Z,0.40
2022-08-07T11:52:10.097Z,0.28
2022-08-07T11:54:55.017Z,0.30
2022-08-07T11:57:59.647Z,0.40
2022-08-07T12:00:27.591Z,0.30
2022-08-07T12:03:03.842Z,0.35
2022-08-07T12:05:41.720Z,0.47
2022-08-07T12:08:25.638Z,0.50
2022-08-07T12:11:19.977Z,0.30
2022-08-07T12:13:52.890Z,0.40
2022-08-07T12:16:30.709Z,0.47
2022-08-07T12:19:03.112Z,0.47
2022-08-07T12:21:56.073Z,0.50
2022-08-07T12:24:37.533Z,0.32
2022-08-07T12:27:13.252Z,0.32
2022-08-07T12:29:48.107Z,0.68
2022-08-07T12:32:21.561Z,0.60
2022-08-07T12:34:56.099Z,0.30
2022-08-07T12:37:28.224Z,0.70
2022-08-07T12:40:43.693Z,0.75
2022-08-07T12:43:09.219Z,0.32
2022-08-07T12:45:52.256Z,0.32
2022-08-07T12:48:52.120Z,0.40
2022-08-07T12:51:18.289Z,0.47
2022-08-07T12:54:02.794Z,0.50
2022-08-07T12:56:40.702Z,0.40
2022-08-07T12:59:09.998Z,0.50
2022-08-07T13:01:56.870Z,0.40
2022-08-07T13:04:49.084Z,0.38
2022-08-07T13:08:12.884Z,0.40
2022-08-07T13:10:51.595Z,0.50
2022-08-07T13:13:47.525Z,0.40
2022-08-07T13:16:23.557Z,0.60
2022-08-07T13:19:00.252Z,0.55
2022-08-07T13:21:51.787Z,0.52
2022-08-07T13:24:25.837Z,0.43
2022-08-07T13:27:02.868Z,0.52
2022-08-07T13:29:37.705Z,0.30
2022-08-07T13:32:32.081Z,0.57
2022-08-07T13:35:08.806Z,0.50
2022-08-07T13:37:41.697Z,0.85
2022-08-07T13:40:34.846Z,0.40
2022-08-07T13:43:03.457Z,0.40
2022-08-07T13:46:12.107Z,0.40
2022-08-07T13:48:31.755Z,0.63
2022-08-07T13:51:26.916Z,0.30
2022-08-07T13:53:59.697Z,0.40
2022-08-07T13:56:35.624Z,0.47
2022-08-07T13:59:12.283Z,0.28
2022-08-07T14:01:51.026Z,0.50
2022-08-07T14:04:29.957Z,0.45
2022-08-07T14:07:09.150Z,0.40
2022-08-07T14:10:01.261Z,0.50
2022-08-07T14:12:31.834Z,0.45
2022-08-07T14:15:05.855Z,0.60
2022-08-07T14:18:23.990Z,0.68
2022-08-07T14:20:43.674Z,0.63
2022-08-07T14:23:17.953Z,0.57
2022-08-07T14:26:01.628Z,0.40
2022-08-07T14:28:33.253Z,0.40
2022-08-07T14:31:18.853Z,0.60
2022-08-07T14:33:52.272Z,0.32
2022-08-07T14:36:20.588Z,0.50
2022-08-07T14:38:53.861Z,0.40
2022-08-07T14:41:34.088Z,0.55
2022-08-07T14:44:15.830Z,1.00
2022-08-07T14:46:51.593Z,0.40
2022-08-07T14:52:13.964Z,0.30
2022-08-07T14:54:49.723Z,0.40
2022-08-07T14:57:24.698Z,0.30
2022-08-07T15:00:03.095Z,0.30
2022-08-07T15:02:35.128Z,0.40
2022-08-07T15:07:54.168Z,0.40
2022-08-07T15:10:26.857Z,0.30
2022-08-07T15:12:59.092Z,0.60
2022-08-07T15:15:38.616Z,0.68
2022-08-07T15:20:58.967Z,0.40
2022-08-07T15:25:02.650Z,0.40
2022-08-07T15:26:28.657Z,0.43
2022-08-07T15:28:59.613Z,0.30
2022-08-07T15:32:01.853Z,0.50
2022-08-07T15:34:34.448Z,0.63
2022-08-07T15:39:57.182Z,0.60
2022-08-07T15:42:51.582Z,0.68
2022-08-07T15:45:55.434Z,0.57
2022-08-07T15:48:23.292Z,0.40
2022-08-07T15:53:52.039Z,0.50
2022-08-07T15:56:24.273Z,0.60
2022-08-07T15:58:55.142Z,0.60
2022-08-07T16:01:24.616Z,0.70
2022-08-07T16:04:14.554Z,0.50
2022-08-07T16:06:45.097Z,0.47
2022-08-07T16:09:22.296Z,0.43
2022-08-07T16:12:01.624Z,0.50
2022-08-07T16:14:45.550Z,0.28
2022-08-07T16:18:01.719Z,0.43
2022-08-07T16:20:34.010Z,0.50
2022-08-07T16:23:25.259Z,0.50
2022-08-07T16:26:10.916Z,0.35
2022-08-07T16:30:07.299Z,0.20
2022-08-07T16:31:57.285Z,0.43
2022-08-07T16:34:33.275Z,0.70
2022-08-07T16:38:03.393Z,0.60
2022-08-07T16:40:23.138Z,0.60
2022-08-07T16:43:01.582Z,0.38
2022-08-07T16:46:47.196Z,0.50
2022-08-07T16:49:04.252Z,0.52
2022-08-07T16:51:54.459Z,0.50
2022-08-07T16:54:33.048Z,0.47
2022-08-07T16:58:00.854Z,0.38
2022-08-07T17:00:14.996Z,0.45
2022-08-07T17:03:17.229Z,0.25
2022-08-07T17:06:28.739Z,0.40
2022-08-07T17:12:01.302Z,0.68
2022-08-07T17:14:35.818Z,0.60
2022-08-07T17:17:07.300Z,0.73
2022-08-07T17:20:03.497Z,0.60
2022-08-07T17:22:30.248Z,1.00
2022-08-07T17:25:08.432Z,0.60
2022-08-07T17:27:51.012Z,0.90
2022-08-07T17:30:26.466Z,0.82
2022-08-07T17:33:02.865Z,0.40
2022-08-07T17:35:54.953Z,0.50
2022-08-07T17:38:33.023Z,0.75
2022-08-07T17:41:12.371Z,0.57
2022-08-07T17:44:02.793Z,0.60
2022-08-07T17:46:36.913Z,0.50
2022-08-07T17:49:11.144Z,0.57
2022-08-07T17:52:00.100Z,0.50
2022-08-07T17:54:40.204Z,0.45
2022-08-07T17:57:25.508Z,0.57
2022-08-07T18:00:32.801Z,0.50
2022-08-07T18:03:09.504Z,0.73
2022-08-07T18:06:03.456Z,0.45
2022-08-07T18:08:31.996Z,0.50
2022-08-07T18:12:16.684Z,0.60
2022-08-07T18:14:01.548Z,0.75
2022-08-07T18:16:33.972Z,0.60
2022-08-07T18:21:03.630Z,1.23
2022-08-07T18:22:03.398Z,0.40
2022-08-07T18:24:36.655Z,0.60
2022-08-07T18:27:18.014Z,0.80
2022-08-07T18:30:32.636Z,0.70
2022-08-07T18:33:16.845Z,0.98
2022-08-07T18:35:51.724Z,0.70
2022-08-07T18:38:58.005Z,0.43
2022-08-07T18:41:20.589Z,0.68
2022-08-07T18:44:00.397Z,0.50
2022-08-07T18:46:30.251Z,0.45
2022-08-07T18:50:18.860Z,0.63
2022-08-07T18:52:34.968Z,0.60
2022-08-07T18:54:49.835Z,1.35
2022-08-07T18:57:30.564Z,2.42
2022-08-07T19:00:32.812Z,0.73
2022-08-07T19:03:03.893Z,0.65
2022-08-07T19:06:03.407Z,0.68
2022-08-07T19:08:42.963Z,0.90
2022-08-07T19:11:36.339Z,0.95
2022-08-07T19:14:17.124Z,0.60
2022-08-07T19:17:07.119Z,0.88
2022-08-07T19:19:48.824Z,0.70
2022-08-07T19:22:30.869Z,0.57
2022-08-07T19:25:06.914Z,0.98
2022-08-07T19:28:57.108Z,0.52
2022-08-07T19:31:03.179Z,0.60
2022-08-07T19:33:16.867Z,0.88
2022-08-07T19:35:52.999Z,0.43
2022-08-07T19:38:34.931Z,0.52
2022-08-07T19:41:39.321Z,0.73
2022-08-07T19:44:21.826Z,0.88
2022-08-07T19:46:55.738Z,1.00
2022-08-07T19:49:57.823Z,1.05
2022-08-07T19:52:27.749Z,0.52
2022-08-07T19:54:57.560Z,0.70
2022-08-07T19:58:03.626Z,0.50
2022-08-07T20:00:21.821Z,0.68
2022-08-07T20:02:57.496Z,0.60
2022-08-07T20:05:30.605Z,0.63
2022-08-07T20:08:21.888Z,0.50
2022-08-07T20:10:55.822Z,0.60
2022-08-07T20:13:27.145Z,0.70
2022-08-07T20:16:01.244Z,0.75
2022-08-07T20:18:32.669Z,0.85
2022-08-07T20:21:03.697Z,0.80
2022-08-07T20:23:51.881Z,0.60
2022-08-07T20:26:32.036Z,0.68
2022-08-07T20:29:10.528Z,0.70
2022-08-07T20:31:46.518Z,0.70
2022-08-07T20:34:15.348Z,0.55
2022-08-07T20:36:51.790Z,0.70
2022-08-07T20:40:01.401Z,0.68
2022-08-07T20:42:11.594Z,1.27
2022-08-07T20:44:45.521Z,0.70
2022-08-07T20:47:19.612Z,0.73
2022-08-07T20:50:01.351Z,0.70
2022-08-07T20:52:51.383Z,0.55
2022-08-07T20:55:24.008Z,0.50
2022-08-07T20:58:02.864Z,0.73
2022-08-07T21:00:33.120Z,0.40
2022-08-07T21:03:02.226Z,0.70
2022-08-07T21:05:55.757Z,0.68
2022-08-07T21:08:29.309Z,0.90
2022-08-07T21:11:10.622Z,0.70
2022-08-07T21:13:56.955Z,0.85
2022-08-07T21:16:31.216Z,0.70
2022-08-07T21:19:00.415Z,0.50
2022-08-07T21:21:30.613Z,1.45
2022-08-07T21:24:07.288Z,0.68
2022-08-07T21:26:42.897Z,0.60
2022-08-07T21:29:18.414Z,0.60
2022-08-07T21:32:44.192Z,0.40
2022-08-07T21:34:46.152Z,0.52
2022-08-07T21:37:21.389Z,0.50
2022-08-07T21:39:56.441Z,0.80
2022-08-07T21:42:46.654Z,0.50
2022-08-07T21:46:04.844Z,0.77
2022-08-07T21:48:10.375Z,0.60
2022-08-07T21:51:03.207Z,0.60
2022-08-07T21:53:37.081Z,0.50
2022-08-07T21:56:40.302Z,0.70
2022-08-07T21:59:09.196Z,0.77
2022-08-07T22:02:07.031Z,0.52
2022-08-07T22:04:29.015Z,0.60
2022-08-07T22:07:01.221Z,0.90
2022-08-07T22:09:31.457Z,1.07
2022-08-07T22:12:10.704Z,0.75
2022-08-07T22:14:59.497Z,0.43
2022-08-07T22:17:35.929Z,0.82
2022-08-07T22:20:08.697Z,0.55
2022-08-07T22:22:51.506Z,0.70
2022-08-07T22:25:21.253Z,0.65
2022-08-07T22:28:29.546Z,1.00
2022-08-07T22:30:53.387Z,0.60
2022-08-07T22:33:53.179Z,0.55
2022-08-07T22:36:17.933Z,0.60
2022-08-07T22:41:19.999Z,0.75
2022-08-07T22:43:50.468Z,0.83
2022-08-07T22:47:02.190Z,0.70
2022-08-07T22:49:39.448Z,0.80
2022-08-07T22:52:37.643Z,0.50
2022-08-07T22:55:23.490Z,0.50
2022-08-07T22:58:02.990Z,0.60
2022-08-07T23:00:37.313Z,0.60
2022-08-07T23:03:16.151Z,0.60
2022-08-07T23:06:14.892Z,0.70
2022-08-07T23:08:51.615Z,0.50
2022-08-07T23:11:29.629Z,0.65
2022-08-07T23:14:20.763Z,0.88
2022-08-07T23:17:00.530Z,0.80
2022-08-07T23:19:52.166Z,0.50
2022-08-07T23:22:30.938Z,0.77
2022-08-07T23:25:06.349Z,0.77
2022-08-07T23:28:22.443Z,0.60
2022-08-07T23:31:05.669Z,0.88
2022-08-07T23:34:21.985Z,0.60
2022-08-07T23:36:43.026Z,0.75
2022-08-07T23:39:14.901Z,0.60
2022-08-07T23:42:04.431Z,0.57
2022-08-07T23:44:48.995Z,0.70
2022-08-07T23:47:24.125Z,0.50
2022-08-07T23:50:16.447Z,0.75
2022-08-07T23:53:05.740Z,0.50
2022-08-07T23:55:52.547Z,0.85
2022-08-07T23:58:25.010Z,0.88
